Time;durP1;ratioP1;P1;durP2;ratioP2;P2;SDS_P1;SDS_P2;PMS_P1;PMS_P2;Temp;Humidity;BMP_temperature;BMP_pressure;BME280_temperature;BME280_humidity;BME280_pressure;Samples;Min_cycle;Max_cycle;Signal;HPM_P1;HPM_P2
2021/09/01 00:00:35;;;;;;;21.17;4.75;;;;;;;15.81;74.75;103003.66;6182921;23;20005;-85
2021/09/01 00:03:01;;;;;;;20.25;4.60;;;;;;;15.80;74.61;103007.19;6187792;23;20009;-84
2021/09/01 00:05:26;;;;;;;12.10;4.65;;;;;;;15.79;75.39;103010.66;6159919;23;20329;-79
2021/09/01 00:07:52;;;;;;;12.10;3.53;;;;;;;15.80;75.66;103015.16;6187920;23;20069;-83
2021/09/01 00:10:18;;;;;;;16.42;3.65;;;;;;;15.79;74.80;103005.34;6185986;23;20005;-83
2021/09/01 00:12:44;;;;;;;14.15;4.13;;;;;;;15.76;76.37;103012.31;6186957;23;20000;-85
2021/09/01 00:15:11;;;;;;;17.83;4.63;;;;;;;15.73;75.93;103005.16;6185769;23;20325;-87
2021/09/01 00:57:02;;;;;;;13.77;4.82;;;;;;;15.49;78.63;103006.22;6179064;23;20032;-79
2021/09/01 00:59:31;;;;;;;15.85;4.15;;;;;;;15.47;79.39;103007.91;6184872;23;20017;-81
2021/09/01 01:01:57;;;;;;;19.33;4.55;;;;;;;15.45;79.42;103004.31;6183200;23;20025;-85
2021/09/01 01:04:46;;;;;;;18.85;5.40;;;;;;;15.43;78.74;103000.72;6186280;23;20333;-80
2021/09/01 01:07:31;;;;;;;16.63;5.00;;;;;;;15.44;78.66;103013.13;6185313;23;20016;-84
2021/09/01 01:09:57;;;;;;;11.43;4.22;;;;;;;15.43;79.05;103011.31;6186082;23;20009;-81
2021/09/01 01:12:22;;;;;;;14.93;4.80;;;;;;;15.43;79.07;103010.44;6158888;23;20025;-82
2021/09/01 01:15:08;;;;;;;12.48;4.53;;;;;;;15.43;78.95;103013.97;6185542;23;20005;-80
2021/09/01 01:17:33;;;;;;;14.88;4.20;;;;;;;15.43;79.03;103010.44;6183793;23;20099;-82
2021/09/01 01:19:59;;;;;;;16.48;5.13;;;;;;;15.43;78.20;103011.31;6187111;23;20421;-82
2021/09/01 01:22:44;;;;;;;14.23;5.60;;;;;;;15.43;78.45;103013.97;6159352;23;20009;-80
2021/09/01 01:25:10;;;;;;;15.93;5.03;;;;;;;15.43;78.58;103008.66;6185043;23;20029;-81
2021/09/01 01:27:42;;;;;;;17.70;4.97;;;;;;;15.45;78.61;103008.72;6158534;23;20012;-82
2021/09/01 01:30:15;;;;;;;15.93;4.55;;;;;;;15.44;78.40;103002.50;6184344;23;20012;-80
2021/09/01 01:32:42;;;;;;;15.25;5.05;;;;;;;15.46;77.58;103005.22;6185224;23;20433;-79
2021/09/01 01:35:10;;;;;;;15.20;5.00;;;;;;;15.47;77.97;103002.59;6185917;23;20020;-82
2021/09/01 01:37:35;;;;;;;12.45;4.00;;;;;;;15.46;77.33;103005.22;6185946;23;20073;-84
2021/09/01 01:40:02;;;;;;;17.88;4.93;;;;;;;15.47;77.34;102996.41;6186566;23;20477;-80
2021/09/01 01:42:27;;;;;;;14.85;3.95;;;;;;;15.48;76.50;102999.09;6183918;23;20001;-79
2021/09/01 01:44:53;;;;;;;16.17;4.97;;;;;;;15.48;77.09;103001.75;6185460;23;20379;-83
2021/09/01 01:47:18;;;;;;;11.93;4.15;;;;;;;15.47;77.39;102999.06;6185698;23;20015;-81
2021/09/01 01:49:44;;;;;;;9.48;3.50;;;;;;;15.47;76.79;103002.59;6185947;23;20009;-85
2021/09/01 01:52:10;;;;;;;12.25;3.70;;;;;;;15.49;76.20;102998.25;6184872;23;20016;-80
2021/09/01 01:54:55;;;;;;;12.32;4.18;;;;;;;15.55;76.02;102994.00;6185776;23;20451;-82
2021/09/01 01:57:20;;;;;;;10.88;3.35;;;;;;;15.51;76.24;102991.22;6185850;23;20013;-77
2021/09/01 01:59:46;;;;;;;10.95;3.85;;;;;;;15.49;76.73;102990.28;6183743;23;20012;-83
2021/09/01 02:02:12;;;;;;;12.15;3.67;;;;;;;15.48;76.65;102985.84;6183664;23;20054;-82
2021/09/01 02:04:37;;;;;;;13.55;3.25;;;;;;;15.46;76.91;102987.56;6186762;23;20329;-79
2021/09/01 02:07:03;;;;;;;15.45;3.60;;;;;;;15.45;76.30;102996.38;6187256;23;20413;-80
2021/09/01 02:09:31;;;;;;;14.23;3.83;;;;;;;15.46;76.11;102989.28;6185929;23;20017;-81
2021/09/01 02:11:56;;;;;;;12.13;4.00;;;;;;;15.46;76.30;102999.91;6185064;23;20001;-79
2021/09/01 02:14:22;;;;;;;12.98;4.15;;;;;;;15.44;76.14;102997.22;6184586;23;20314;-77
2021/09/01 02:16:48;;;;;;;8.60;3.35;;;;;;;15.43;76.41;102999.81;6158520;23;20005;-84
2021/09/01 02:19:13;;;;;;;10.73;3.75;;;;;;;15.42;76.68;103003.31;6186066;23;20094;-78
2021/09/01 02:21:39;;;;;;;16.23;3.75;;;;;;;15.39;77.20;103009.41;6185556;23;19997;-79
2021/09/01 02:24:06;;;;;;;14.13;4.43;;;;;;;15.37;77.58;103000.53;6188053;23;20139;-81
2021/09/01 02:26:31;;;;;;;12.45;3.60;;;;;;;15.34;76.72;102996.03;6186948;23;20144;-81
2021/09/01 02:28:57;;;;;;;12.98;3.75;;;;;;;15.34;77.47;103000.41;6187999;23;20004;-83
2021/09/01 02:31:42;;;;;;;17.13;3.97;;;;;;;15.32;77.49;103008.31;6192954;23;20340;-84
2021/09/01 02:34:08;;;;;;;13.63;3.47;;;;;;;15.31;78.21;103009.19;6168392;23;20013;-84
2021/09/01 02:36:34;;;;;;;11.95;4.05;;;;;;;15.30;77.62;102995.88;6194488;23;20380;-81
2021/09/01 02:38:59;;;;;;;9.63;4.47;;;;;;;15.30;78.29;103003.81;6188210;23;20032;-80
2021/09/01 02:41:25;;;;;;;15.57;3.80;;;;;;;15.30;78.46;102995.88;6188360;23;20079;-85
2021/09/01 02:44:10;;;;;;;13.35;3.80;;;;;;;15.27;79.09;103006.38;6189459;23;20105;-84
2021/09/01 02:46:36;;;;;;;13.75;4.32;;;;;;;15.25;78.92;103005.44;6188945;23;20011;-84
2021/09/01 02:49:01;;;;;;;13.60;4.32;;;;;;;15.24;78.72;103001.88;6189450;23;20001;-77
2021/09/01 02:51:27;;;;;;;8.13;3.40;;;;;;;15.25;78.36;103000.16;6188538;23;20005;-78
2021/09/01 02:53:52;;;;;;;16.27;4.55;;;;;;;15.25;80.07;103005.44;6188799;23;20009;-78
2021/09/01 02:56:18;;;;;;;17.42;4.13;;;;;;;15.24;79.45;103011.59;6190099;23;20009;-82
2021/09/01 02:58:44;;;;;;;18.25;4.80;;;;;;;15.26;79.18;103012.53;6189142;23;20021;-80
2021/09/01 03:01:09;;;;;;;16.50;4.20;;;;;;;15.23;79.66;103002.72;6182029;23;20013;-79
2021/09/01 03:03:34;;;;;;;16.50;4.53;;;;;;;15.22;79.80;103008.91;6187600;23;19993;-83
2021/09/01 03:06:00;;;;;;;15.15;5.00;;;;;;;15.22;79.80;103002.69;6190425;23;20013;-82
2021/09/01 03:08:26;;;;;;;12.20;4.22;;;;;;;15.21;80.03;102998.25;6189234;23;20080;-83
2021/09/01 03:10:51;;;;;;;13.23;5.03;;;;;;;15.18;79.67;102994.63;6161029;23;20091;-85
2021/09/01 03:13:16;;;;;;;13.50;4.35;;;;;;;15.17;79.95;102997.25;6188313;23;20467;-82
2021/09/01 03:15:42;;;;;;;13.73;4.80;;;;;;;15.16;80.33;103000.75;6190036;23;19997;-77
2021/09/01 03:18:08;;;;;;;14.23;4.10;;;;;;;15.14;80.07;102999.81;6186252;23;20428;-80
2021/09/01 03:20:33;;;;;;;20.02;4.53;;;;;;;15.14;80.32;103000.69;6187969;23;20036;-81
2021/09/01 03:22:58;;;;;;;16.02;5.07;;;;;;;15.13;80.06;102996.22;6187674;23;19997;-79
2021/09/01 03:25:24;;;;;;;13.18;4.40;;;;;;;15.12;80.35;102999.72;6189102;23;20015;-80
2021/09/01 03:27:49;;;;;;;16.17;4.63;;;;;;;15.11;80.18;102997.03;6185997;23;20421;-87
2021/09/01 03:30:17;;;;;;;14.82;4.68;;;;;;;15.11;80.09;103000.59;6186282;23;20425;-81
2021/09/01 03:32:43;;;;;;;15.45;4.30;;;;;;;15.12;80.43;102999.72;6189564;23;20040;-82
2021/09/01 03:35:09;;;;;;;19.98;4.38;;;;;;;15.12;80.33;102999.72;6188388;23;20025;-77
2021/09/01 03:37:54;;;;;;;12.20;3.78;;;;;;;15.11;80.83;103005.91;6187445;23;20013;-83
2021/09/01 03:40:20;;;;;;;13.80;3.83;;;;;;;15.11;81.23;102997.94;6175258;23;20492;-84
2021/09/01 03:42:46;;;;;;;10.15;3.75;;;;;;;15.10;80.46;103004.09;6187331;23;20025;-81
2021/09/01 03:45:31;;;;;;;15.27;4.10;;;;;;;15.10;80.68;103005.84;6187279;23;20004;-83
2021/09/01 03:47:57;;;;;;;14.88;5.03;;;;;;;15.09;80.93;103002.28;6187752;23;20013;-80
2021/09/01 03:50:23;;;;;;;13.55;4.25;;;;;;;15.09;81.07;103001.41;6185930;23;20063;-81
2021/09/01 03:53:08;;;;;;;14.93;4.63;;;;;;;15.08;81.21;103000.47;6187389;23;20005;-83
2021/09/01 03:55:36;;;;;;;12.13;4.18;;;;;;;15.07;82.01;103001.34;6186265;23;20005;-80
2021/09/01 03:58:02;;;;;;;13.27;4.10;;;;;;;15.05;82.51;103008.34;6185607;23;20464;-83
2021/09/01 04:00:27;;;;;;;18.17;5.15;;;;;;;15.02;82.52;103002.94;6182483;23;20008;-82
2021/09/01 04:02:53;;;;;;;12.27;4.65;;;;;;;14.99;83.36;103006.41;6161146;23;20009;-81
2021/09/01 04:05:38;;;;;;;23.98;6.95;;;;;;;14.96;84.79;103014.25;6188771;23;20318;-79
2021/09/01 04:08:05;;;;;;;15.65;5.65;;;;;;;14.94;83.99;103004.44;6185176;23;20009;-83
2021/09/01 04:10:30;;;;;;;19.85;4.43;;;;;;;14.93;84.38;103010.59;6186072;23;20136;-81
2021/09/01 04:12:56;;;;;;;12.63;4.35;;;;;;;14.92;84.35;103016.72;6188932;23;19997;-84
2021/09/01 04:15:22;;;;;;;20.15;5.65;;;;;;;14.92;85.00;103011.44;6160342;23;20362;-83
2021/09/01 04:17:47;;;;;;;18.15;4.90;;;;;;;14.91;85.31;103005.25;6187252;23;20083;-80
2021/09/01 04:20:13;;;;;;;17.70;6.43;;;;;;;14.89;85.60;103003.38;6186041;23;20432;-82
2021/09/01 04:22:38;;;;;;;21.92;6.90;;;;;;;14.87;85.18;103005.06;6186364;23;20007;-80
2021/09/01 04:25:24;;;;;;;19.85;7.78;;;;;;;14.84;85.03;103014.72;6187636;23;20015;-81
2021/09/01 04:27:49;;;;;;;22.25;7.25;;;;;;;14.84;85.15;103009.44;6184639;23;20028;-84
2021/09/01 04:30:15;;;;;;;17.42;5.78;;;;;;;14.85;85.75;103005.03;6185868;23;20001;-79
2021/09/01 04:32:40;;;;;;;17.25;5.07;;;;;;;14.84;85.05;103014.72;6187666;23;20001;-80
2021/09/01 04:35:09;;;;;;;14.23;4.60;;;;;;;14.86;85.37;103008.59;6186916;23;20005;-83
2021/09/01 04:37:35;;;;;;;14.63;4.38;;;;;;;14.87;85.73;103010.38;6187055;23;20009;-80
2021/09/01 04:40:20;;;;;;;14.07;5.05;;;;;;;14.89;85.76;103017.53;6185994;23;20012;-82
2021/09/01 04:42:46;;;;;;;14.40;4.05;;;;;;;14.87;85.77;103019.25;6188061;23;20495;-81
2021/09/01 04:45:31;;;;;;;10.70;4.72;;;;;;;14.83;85.83;103012.94;6186696;23;20140;-80
2021/09/01 04:47:57;;;;;;;18.05;4.82;;;;;;;14.86;85.83;103008.59;6187862;23;20005;-81
2021/09/01 04:50:23;;;;;;;21.27;4.90;;;;;;;14.87;84.61;103005.06;6185302;23;20008;-82
2021/09/01 04:52:48;;;;;;;11.68;4.60;;;;;;;14.89;84.54;103006.03;6188039;23;20008;-82
2021/09/01 04:55:15;;;;;;;11.48;4.70;;;;;;;14.90;85.15;103006.09;6186629;23;20325;-78
2021/09/01 04:57:41;;;;;;;19.05;4.38;;;;;;;14.93;84.74;103002.63;6188408;23;20017;-83
2021/09/01 05:00:10;;;;;;;10.77;3.88;;;;;;;14.94;85.09;103004.44;6181922;23;20009;-83
2021/09/01 05:02:36;;;;;;;14.15;4.28;;;;;;;14.94;85.92;103010.63;6188163;23;20005;-84
2021/09/01 05:05:22;;;;;;;14.20;5.45;;;;;;;14.94;85.36;103004.44;6186848;23;20009;-79
2021/09/01 05:07:50;;;;;;;15.32;4.43;;;;;;;14.92;85.62;103011.44;6188698;23;20020;-84
2021/09/01 05:10:15;;;;;;;16.58;4.38;;;;;;;14.91;85.19;103009.66;6184746;23;20001;-80
2021/09/01 05:13:01;;;;;;;14.13;4.70;;;;;;;14.92;85.66;103011.44;6188382;23;20003;-82
2021/09/01 05:15:29;;;;;;;12.90;4.15;;;;;;;14.91;86.22;103017.59;6186283;23;20063;-76
2021/09/01 05:17:54;;;;;;;14.57;4.70;;;;;;;14.90;86.26;103013.16;6188319;23;20001;-81
2021/09/01 05:20:20;;;;;;;11.45;4.57;;;;;;;14.91;86.34;103021.16;6187963;23;20075;-83
2021/09/01 05:23:08;;;;;;;18.70;5.40;;;;;;;14.92;85.85;103017.66;6190175;23;20151;-79
2021/09/01 05:26:02;;;;;;;14.13;4.13;;;;;;;14.94;85.41;103021.25;6193640;23;20429;-82
2021/09/01 05:29:04;;;;;;;17.00;5.50;;;;;;;14.98;83.60;103012.53;6189281;23;20009;-79
2021/09/01 05:31:32;;;;;;;7.75;3.05;;;;;;;15.04;81.95;103006.53;6185511;23;20059;-80
2021/09/01 05:34:01;;;;;;;12.23;3.95;;;;;;;15.07;82.58;103014.59;6185226;23;20384;-82
2021/09/01 05:36:48;;;;;;;11.48;3.90;;;;;;;15.11;83.06;103012.94;6184739;23;20024;-85
2021/09/01 05:39:14;;;;;;;9.25;3.78;;;;;;;15.13;82.69;103006.84;6185101;23;20029;-81
2021/09/01 05:41:42;;;;;;;9.85;3.63;;;;;;;15.18;82.37;103018.50;6185068;23;20028;-87
2021/09/01 05:44:08;;;;;;;14.50;3.95;;;;;;;15.21;83.64;103016.81;6192086;23;20024;-80
2021/09/01 05:46:35;;;;;;;12.85;3.85;;;;;;;15.24;83.70;103024.88;6189690;23;20013;-77
2021/09/01 05:49:22;;;;;;;11.75;3.80;;;;;;;15.25;85.00;103032.88;6188768;23;20068;-82
2021/09/01 05:51:51;;;;;;;10.82;3.92;;;;;;;15.27;84.30;103028.50;6189042;23;20484;-81
2021/09/01 05:54:17;;;;;;;11.23;4.68;;;;;;;15.30;85.32;103027.69;6185992;23;20008;-89
2021/09/01 05:57:12;;;;;;;11.65;4.85;;;;;;;15.32;84.56;103029.53;6161655;23;20105;-87
2021/09/01 05:59:56;;;;;;;18.17;4.90;;;;;;;15.33;85.09;103031.34;6188769;23;20012;-82
2021/09/01 06:02:38;;;;;;;14.00;4.55;;;;;;;15.35;84.14;103023.44;6158287;23;20413;-88
2021/09/01 06:05:05;;;;;;;13.83;3.33;;;;;;;15.38;83.10;103020.00;6187051;23;20006;-86
2021/09/01 06:07:52;;;;;;;12.77;3.70;;;;;;;15.42;83.88;103030.72;6186742;23;20075;-84
2021/09/01 06:10:22;;;;;;;18.83;4.03;;;;;;;15.45;84.15;103036.16;6187601;23;20013;-83
2021/09/01 06:13:08;;;;;;;9.90;3.58;;;;;;;15.49;84.83;103037.13;6186693;23;20061;-82
2021/09/01 06:15:35;;;;;;;11.70;3.95;;;;;;;15.50;83.53;103023.94;6184566;23;20380;-82
2021/09/01 06:18:09;;;;;;;11.05;4.03;;;;;;;15.57;82.30;103016.16;6185352;23;20048;-87
2021/09/01 06:20:37;;;;;;;14.48;3.90;;;;;;;15.63;83.21;103024.31;6187014;23;20016;-81
2021/09/01 06:23:03;;;;;;;14.35;3.58;;;;;;;15.71;82.91;103027.19;6184648;23;20084;-80
2021/09/01 06:25:29;;;;;;;14.32;4.30;;;;;;;15.76;79.98;103025.56;6184604;23;20009;-80
2021/09/01 06:27:55;;;;;;;9.60;3.88;;;;;;;15.81;80.94;103027.53;6184534;23;20069;-76
2021/09/01 06:30:21;;;;;;;10.07;3.55;;;;;;;15.87;81.74;103039.22;6181354;23;20420;-83
2021/09/01 06:32:47;;;;;;;9.63;3.17;;;;;;;15.88;81.98;103030.41;6166260;23;20005;-86
2021/09/01 06:35:13;;;;;;;6.78;3.38;;;;;;;15.90;81.81;103039.28;6185413;23;20086;-83
2021/09/01 06:38:01;;;;;;;11.63;3.28;;;;;;;15.92;81.57;103034.94;6156809;23;20013;-89
2021/09/01 06:40:27;;;;;;;11.55;3.70;;;;;;;15.92;80.89;103038.47;6184498;23;20044;-80
2021/09/01 06:42:52;;;;;;;8.07;3.45;;;;;;;15.94;81.38;103035.88;6184350;23;20013;-82
2021/09/01 06:45:40;;;;;;;10.23;3.95;;;;;;;15.96;81.16;103040.38;6184012;23;20009;-82
2021/09/01 06:48:05;;;;;;;11.10;4.22;;;;;;;15.99;80.45;103039.56;6184435;23;20088;-86
2021/09/01 06:50:33;;;;;;;8.70;3.75;;;;;;;16.04;82.27;103037.94;6185814;23;20017;-82
2021/09/01 06:53:01;;;;;;;13.00;4.47;;;;;;;16.04;84.12;103040.59;6187047;23;20008;-88
2021/09/01 06:55:27;;;;;;;9.13;3.88;;;;;;;16.09;83.71;103043.38;6184499;23;20033;-87
2021/09/01 06:57:55;;;;;;;12.43;3.85;;;;;;;16.09;83.79;103039.00;6184632;23;20017;-86
2021/09/01 07:00:21;;;;;;;13.02;4.63;;;;;;;16.13;83.14;103038.22;6154573;23;20005;-79
2021/09/01 07:02:49;;;;;;;10.93;4.40;;;;;;;16.17;82.46;103034.81;6170344;23;20032;-86
2021/09/01 07:05:17;;;;;;;13.20;4.78;;;;;;;16.21;83.47;103040.19;6185345;23;20031;-86
2021/09/01 07:07:46;;;;;;;10.70;3.42;;;;;;;16.26;80.15;103027.94;6184995;23;20048;-84
2021/09/01 07:10:12;;;;;;;7.15;3.40;;;;;;;16.31;80.20;103031.63;6185380;23;20021;-84
2021/09/01 07:12:38;;;;;;;12.98;3.88;;;;;;;16.34;79.56;103035.25;6190698;23;20460;-79
2021/09/01 07:15:09;;;;;;;11.50;3.80;;;;;;;16.40;78.64;103039.88;6187994;23;19997;-84
2021/09/01 07:17:55;;;;;;;11.75;3.53;;;;;;;16.44;76.89;103039.09;6187326;23;20024;-76
2021/09/01 07:20:21;;;;;;;11.40;4.13;;;;;;;16.47;77.96;103035.63;6187339;23;20089;-82
2021/09/01 07:22:49;;;;;;;13.48;4.13;;;;;;;16.50;77.26;103036.59;6186245;23;20072;-85
2021/09/01 07:25:15;;;;;;;10.68;4.05;;;;;;;16.53;77.48;103038.44;6186025;23;20009;-80
2021/09/01 07:27:41;;;;;;;10.70;3.65;;;;;;;16.56;77.55;103037.63;6186278;23;20005;-88
2021/09/01 07:30:07;;;;;;;13.15;3.78;;;;;;;16.60;77.05;103044.81;6186484;23;20448;-83
2021/09/01 07:32:33;;;;;;;7.85;3.65;;;;;;;16.67;77.98;103053.00;6188357;23;20001;-83
2021/09/01 07:34:59;;;;;;;15.13;5.00;;;;;;;16.70;77.42;103052.19;6188646;23;20009;-89
2021/09/01 07:37:24;;;;;;;19.50;4.10;;;;;;;16.71;76.14;103053.97;6186869;23;20087;-78
2021/09/01 07:39:50;;;;;;;13.75;4.40;;;;;;;16.68;76.02;103052.16;6187409;23;20012;-80
2021/09/01 07:42:15;;;;;;;10.77;4.15;;;;;;;16.68;76.31;103073.41;6186353;23;20028;-79
2021/09/01 07:44:41;;;;;;;13.68;4.63;;;;;;;16.65;77.19;103070.66;6187865;23;20013;-79
2021/09/01 07:47:09;;;;;;;9.98;4.07;;;;;;;16.65;77.68;103083.06;6185787;23;20008;-82
2021/09/01 07:49:34;;;;;;;12.07;4.00;;;;;;;16.61;78.07;103082.06;6187729;23;20084;-84
2021/09/01 07:52:01;;;;;;;11.55;4.50;;;;;;;16.61;78.37;103089.16;6188169;23;20003;-84
2021/09/01 07:54:27;;;;;;;10.00;4.22;;;;;;;16.58;81.19;103095.28;6188933;23;20033;-83
2021/09/01 07:56:58;;;;;;;12.90;4.88;;;;;;;16.56;79.21;103090.78;6185797;23;20021;-79
2021/09/01 07:59:23;;;;;;;8.70;3.80;;;;;;;16.58;79.03;103083.75;6185654;23;20011;-87
2021/09/01 08:01:48;;;;;;;13.02;4.18;;;;;;;16.60;80.38;103097.97;6183938;23;20005;-81
2021/09/01 08:04:14;;;;;;;16.98;4.25;;;;;;;16.63;79.00;103088.34;6187183;23;20361;-83
2021/09/01 08:06:40;;;;;;;10.85;3.35;;;;;;;16.70;79.47;103097.38;6161289;23;20420;-85
2021/09/01 08:09:05;;;;;;;11.27;3.28;;;;;;;16.77;78.12;103096.69;6188570;23;20004;-80
2021/09/01 08:11:34;;;;;;;10.35;3.30;;;;;;;16.85;76.44;103095.13;6161975;23;20004;-85
2021/09/01 08:14:00;;;;;;;18.25;4.43;;;;;;;16.86;77.04;103096.94;6188683;23;20017;-77
2021/09/01 08:16:32;;;;;;;11.95;3.55;;;;;;;16.85;77.27;103099.56;6189264;23;20084;-85
2021/09/01 08:18:57;;;;;;;9.68;2.97;;;;;;;16.84;76.57;103106.63;6191878;23;20001;-80
2021/09/01 08:21:23;;;;;;;19.33;4.55;;;;;;;16.71;76.06;103104.47;6191570;23;20323;-87
2021/09/01 08:23:49;;;;;;;5.95;2.58;;;;;;;16.76;77.36;103110.81;6189711;23;20001;-81
2021/09/01 08:26:34;;;;;;;8.52;3.35;;;;;;;16.69;79.27;103122.16;6187321;23;20055;-82
2021/09/01 08:29:09;;;;;;;9.82;2.92;;;;;;;16.73;79.72;103121.38;6185877;23;20008;-86
2021/09/01 08:31:34;;;;;;;9.70;3.35;;;;;;;16.59;81.36;103130.72;6186398;23;20063;-83
2021/09/01 08:34:00;;;;;;;8.15;3.15;;;;;;;16.59;81.50;103128.97;6196389;23;20283;-79
2021/09/01 08:36:25;;;;;;;11.40;3.42;;;;;;;16.59;81.65;103131.66;6184901;23;20459;-80
2021/09/01 08:38:51;;;;;;;9.63;3.58;;;;;;;16.72;81.38;103135.53;6186306;23;20384;-81
2021/09/01 08:41:18;;;;;;;11.10;4.07;;;;;;;16.86;79.85;103136.81;6184778;23;20001;-85
2021/09/01 08:43:46;;;;;;;13.60;3.58;;;;;;;17.15;79.54;103139.38;6135172;23;20033;-82
2021/09/01 08:46:32;;;;;;;7.25;3.10;;;;;;;17.47;76.60;103112.69;6159901;23;20016;-85
2021/09/01 08:49:00;;;;;;;12.68;3.03;;;;;;;17.91;75.13;103124.38;6186708;23;20005;-81
2021/09/01 08:51:25;;;;;;;8.50;3.03;;;;;;;18.01;74.53;103113.06;6186455;23;20013;-82
2021/09/01 08:54:13;;;;;;;10.32;2.80;;;;;;;18.22;74.48;103119.72;6187522;23;19997;-79
2021/09/01 08:56:38;;;;;;;10.43;3.28;;;;;;;18.29;75.55;103127.88;6185985;23;20009;-85
2021/09/01 08:59:04;;;;;;;11.52;3.05;;;;;;;18.51;74.83;103131.00;6186618;23;20017;-85
2021/09/01 09:01:49;;;;;;;8.07;2.53;;;;;;;18.76;71.69;103115.47;6185326;23;20041;-85
2021/09/01 09:04:48;;;;;;;8.95;2.58;;;;;;;19.03;70.76;103108.00;6187492;23;20009;-83
2021/09/01 09:07:13;;;;;;;8.30;2.67;;;;;;;19.44;67.38;103088.22;6185726;23;20014;-80
2021/09/01 09:09:59;;;;;;;9.40;2.90;;;;;;;19.77;66.38;103086.91;6186588;23;20083;-85
2021/09/01 09:12:32;;;;;;;8.82;2.95;;;;;;;19.88;66.44;103089.78;6184953;23;20009;-78
2021/09/01 09:14:57;;;;;;;;;;;;;;;19.47;66.58;103087.38;6159984;23;20020;-81
2021/09/01 09:17:43;;;;;;;8.15;2.50;;;;;;;19.10;67.86;103103.69;6185621;23;20291;-82
2021/09/01 09:20:10;;;;;;;8.38;2.47;;;;;;;18.58;69.85;103111.56;6185046;23;20009;-83
2021/09/01 09:22:40;;;;;;;13.70;3.40;;;;;;;18.36;72.00;103111.13;6186703;23;20047;-83
2021/09/01 09:25:24;;;;;;;11.15;2.28;;;;;;;18.09;74.07;103116.78;6185861;23;20032;-82
2021/09/01 09:28:14;;;;;;;7.45;2.63;;;;;;;17.92;73.42;103110.19;6185283;23;20109;-85
2021/09/01 09:30:45;;;;;;;5.38;2.42;;;;;;;17.91;76.43;103124.38;6184322;23;20008;-84
2021/09/01 09:33:22;;;;;;;12.00;2.92;;;;;;;18.00;74.63;103108.59;6184036;23;20012;-82
2021/09/01 09:35:51;;;;;;;9.70;2.50;;;;;;;18.37;75.75;103123.59;6184111;23;20005;-79
2021/09/01 09:38:29;;;;;;;7.13;1.98;;;;;;;18.87;67.50;103089.91;6182038;23;20005;-85
2021/09/01 09:40:59;;;;;;;7.95;2.15;;;;;;;19.51;68.85;103100.78;6184199;23;20008;-84
2021/09/01 09:43:45;;;;;;;7.05;2.47;;;;;;;20.10;67.35;103096.28;6184381;23;20009;-81
2021/09/01 09:46:13;;;;;;;6.35;1.67;;;;;;;20.26;62.29;103070.66;6183993;23;20009;-87
2021/09/01 09:48:40;;;;;;;8.10;1.73;;;;;;;20.60;61.38;103075.47;6187580;23;20020;-84
2021/09/01 09:51:11;;;;;;;6.07;1.40;;;;;;;20.67;64.63;103093.38;6184543;23;20035;-87
2021/09/01 09:54:05;;;;;;;7.05;2.08;;;;;;;20.92;60.81;103077.59;6186627;23;20080;-86
2021/09/01 09:56:31;;;;;;;4.97;1.60;;;;;;;21.04;59.56;103067.91;6176973;23;20080;-83
2021/09/01 09:59:24;;;;;;;3.78;1.83;;;;;;;21.22;58.50;103076.97;6186711;23;20023;-80
2021/09/01 10:01:50;;;;;;;2.75;1.42;;;;;;;21.24;59.42;103075.19;6182813;23;20009;-83
2021/09/01 10:04:38;;;;;;;5.40;1.58;;;;;;;21.26;61.12;103083.25;6187012;23;20008;-85
2021/09/01 10:07:04;;;;;;;4.53;1.35;;;;;;;21.14;60.70;103076.03;6187837;23;20009;-83
2021/09/01 10:09:50;;;;;;;5.78;1.60;;;;;;;21.25;61.78;103076.09;6188809;23;20336;-84
2021/09/01 10:12:15;;;;;;;3.42;1.42;;;;;;;21.03;59.07;103063.44;6188649;23;20012;-84
2021/09/01 10:14:41;;;;;;;8.68;2.15;;;;;;;21.04;61.27;103072.38;6191744;23;20027;-78
2021/09/01 10:17:28;;;;;;;2.25;1.10;;;;;;;21.20;58.58;103058.22;6193181;23;20013;-78
2021/09/01 10:20:41;;;;;;;3.38;1.48;;;;;;;20.91;59.81;103060.66;6194349;23;20066;-80
2021/09/01 10:23:46;;;;;;;4.70;2.20;;;;;;;20.62;61.91;103068.34;6194474;23;20035;-87
2021/09/01 10:26:56;;;;;;;6.32;1.73;;;;;;;20.44;61.41;103061.94;6188850;23;20013;-79
2021/09/01 10:30:04;;;;;;;5.28;2.13;;;;;;;20.27;61.37;103055.53;6191245;23;20004;-85
2021/09/01 10:33:24;;;;;;;3.88;1.48;;;;;;;20.45;60.67;103050.34;6181102;23;20011;-88
2021/09/01 10:35:50;;;;;;;4.43;1.65;;;;;;;20.43;62.29;103064.59;6190588;23;20019;-85
2021/09/01 10:38:31;;;;;;;4.78;1.45;;;;;;;20.44;60.18;103047.66;6188054;23;20001;-81
2021/09/01 10:41:39;;;;;;;6.68;1.70;;;;;;;20.20;61.72;103054.56;6190401;23;20420;-87
2021/09/01 10:44:33;;;;;;;4.05;1.58;;;;;;;19.65;62.27;103055.56;6187699;23;20341;-87
2021/09/01 10:47:00;;;;;;;4.50;1.80;;;;;;;19.69;62.40;103062.75;6190476;23;20087;-86
2021/09/01 10:49:46;;;;;;;6.20;1.98;;;;;;;19.41;64.20;103072.16;6188806;23;20019;-84
2021/09/01 10:52:14;;;;;;;9.48;1.92;;;;;;;19.18;67.66;103086.03;6190116;23;20516;-84
2021/09/01 10:54:41;;;;;;;7.43;2.30;;;;;;;19.27;66.47;103076.38;6187010;23;20384;-82
2021/09/01 10:57:46;;;;;;;5.93;1.98;;;;;;;19.57;65.82;103075.06;6180609;23;20021;-83
2021/09/01 11:00:16;;;;;;;7.53;2.17;;;;;;;19.69;65.75;103062.75;6184180;23;20036;-83
2021/09/01 11:03:24;;;;;;;5.72;2.13;;;;;;;19.99;63.12;103050.72;6187784;23;20067;-84
2021/09/01 11:05:50;;;;;;;8.27;1.98;;;;;;;20.28;63.28;103050.19;6188079;23;20063;-85
2021/09/01 11:08:15;;;;;;;9.30;1.98;;;;;;;20.55;60.76;103040.66;6189986;23;20013;-86
2021/09/01 11:11:01;;;;;;;5.75;2.15;;;;;;;20.95;61.09;103041.06;6189327;23;20467;-86
2021/09/01 11:13:58;;;;;;;5.95;1.92;;;;;;;21.44;61.56;103045.88;6185264;23;20004;-81
2021/09/01 11:16:24;;;;;;;5.57;1.95;;;;;;;21.61;59.05;103035.31;6189185;23;20052;-83
2021/09/01 11:19:21;;;;;;;6.75;1.70;;;;;;;21.42;58.72;103031.59;6189511;23;20001;-84
2021/09/01 11:21:47;;;;;;;6.70;1.80;;;;;;;21.69;60.09;103025.53;6187673;23;20095;-85
2021/09/01 11:24:43;;;;;;;5.20;1.70;;;;;;;21.76;60.49;103036.25;6162415;23;20432;-86
2021/09/01 11:27:29;;;;;;;5.95;1.73;;;;;;;21.61;61.31;103047.78;6187266;23;20036;-85
2021/09/01 11:30:08;;;;;;;4.28;2.17;;;;;;;21.95;59.73;103045.28;6186933;23;20027;-82
2021/09/01 11:32:36;;;;;;;4.25;1.77;;;;;;;22.14;58.00;103041.78;6187785;23;20015;-79
2021/09/01 11:35:11;;;;;;;5.25;1.77;;;;;;;21.71;57.52;103034.44;6187626;23;20013;-85
2021/09/01 11:37:36;;;;;;;3.15;1.52;;;;;;;21.87;60.73;103051.50;6162154;23;20059;-79
2021/09/01 11:40:29;;;;;;;8.98;2.42;;;;;;;21.78;56.40;103038.06;6187261;23;20492;-80
2021/09/01 11:42:55;;;;;;;7.07;1.90;;;;;;;21.93;57.20;103033.66;6187128;23;20005;-87
2021/09/01 11:45:20;;;;;;;4.28;1.55;;;;;;;21.89;58.86;103038.09;6188279;23;20009;-83
2021/09/01 11:47:46;;;;;;;9.05;1.58;;;;;;;21.63;57.95;103036.19;6186041;23;20076;-84
2021/09/01 11:50:54;;;;;;;4.30;1.80;;;;;;;21.48;58.57;103031.63;6187672;23;20035;-83
2021/09/01 11:53:20;;;;;;;5.10;1.50;;;;;;;21.37;60.67;103041.38;6175382;23;20012;-83
2021/09/01 11:56:25;;;;;;;8.93;2.00;;;;;;;21.17;58.34;103036.75;6188194;23;20005;-86
2021/09/01 11:59:20;;;;;;;4.45;1.52;;;;;;;20.76;59.28;103048.03;6187748;23;20448;-83
2021/09/01 12:01:53;;;;;;;6.70;1.45;;;;;;;20.66;60.76;103056.81;6184741;23;20024;-86
2021/09/01 12:04:20;;;;;;;7.95;1.55;;;;;;;20.30;60.88;103050.19;6187904;23;20005;-80
2021/09/01 12:06:52;;;;;;;11.95;1.67;;;;;;;20.17;60.19;103055.41;6186774;23;20012;-81
2021/09/01 12:09:20;;;;;;;3.17;1.90;;;;;;;19.97;62.98;103067.63;6187642;23;20016;-86
2021/09/01 12:12:21;;;;;;;3.90;2.50;;;;;;;19.99;61.88;103065.88;6187250;23;20009;-81
2021/09/01 12:14:47;;;;;;;4.10;2.03;;;;;;;19.80;62.17;103060.25;6186194;23;20012;-83
2021/09/01 12:17:38;;;;;;;4.53;1.75;;;;;;;19.77;63.98;103062.88;6186554;23;20008;-82
2021/09/01 12:20:24;;;;;;;8.50;1.58;;;;;;;19.88;62.81;103061.25;6186061;23;20084;-83
2021/09/01 12:22:49;;;;;;;2.55;1.38;;;;;;;19.97;62.21;103062.28;6171196;23;20372;-86